sensor_id;sensor_type;location;lat;lon;timestamp;temperature;humidity
55331;DHT22;58851;42.984;20.336;2022-11-02T00:00:39;180.10;6502.40
55331;DHT22;58851;42.984;20.336;2022-11-02T00:03:05;180.00;204.80
55331;DHT22;58851;42.984;20.336;2022-11-02T00:05:31;180.00;128.00
55331;DHT22;58851;42.984;20.336;2022-11-02T00:07:57;180.00;6502.40
55331;DHT22;58851;42.984;20.336;2022-11-02T00:10:23;180.00;6502.40
55331;DHT22;58851;42.984;20.336;2022-11-02T00:12:50;179.90;6502.40
55331;DHT22;58851;42.984;20.336;2022-11-02T00:15:17;179.80;256.00
55331;DHT22;58851;42.984;20.336;2022-11-02T00:17:49;179.90;435.20
55331;DHT22;58851;42.984;20.336;2022-11-02T00:20:17;179.80;409.60
55331;DHT22;58851;42.984;20.336;2022-11-02T00:22:45;179.80;358.40
55331;DHT22;58851;42.984;20.336;2022-11-02T00:25:14;179.80;486.40
55331;DHT22;58851;42.984;20.336;2022-11-02T00:27:42;179.70;179.20
55331;DHT22;58851;42.984;20.336;2022-11-02T00:30:08;179.70;6502.40
55331;DHT22;58851;42.984;20.336;2022-11-02T00:32:34;179.70;563.20
55331;DHT22;58851;42.984;20.336;2022-11-02T00:35:00;179.70;460.80
55331;DHT22;58851;42.984;20.336;2022-11-02T00:37:26;179.70;6502.40
55331;DHT22;58851;42.984;20.336;2022-11-02T00:39:52;179.60;6502.40
55331;DHT22;58851;42.984;20.336;2022-11-02T00:42:18;179.60;6502.40
55331;DHT22;58851;42.984;20.336;2022-11-02T00:44:43;179.50;6502.40
55331;DHT22;58851;42.984;20.336;2022-11-02T00:47:09;179.50;435.20
55331;DHT22;58851;42.984;20.336;2022-11-02T00:49:36;179.50;6502.40
55331;DHT22;58851;42.984;20.336;2022-11-02T00:52:02;179.50;537.60
55331;DHT22;58851;42.984;20.336;2022-11-02T00:54:28;179.50;537.60
55331;DHT22;58851;42.984;20.336;2022-11-02T00:56:54;179.40;537.60
55331;DHT22;58851;42.984;20.336;2022-11-02T00:59:19;179.40;6528.00
55331;DHT22;58851;42.984;20.336;2022-11-02T01:01:45;179.30;6502.40
55331;DHT22;58851;42.984;20.336;2022-11-02T01:04:12;179.30;537.60
55331;DHT22;58851;42.984;20.336;2022-11-02T01:06:39;179.30;6502.40
55331;DHT22;58851;42.984;20.336;2022-11-02T01:09:05;179.30;6502.40
55331;DHT22;58851;42.984;20.336;2022-11-02T01:11:31;179.20;6502.40
55331;DHT22;58851;42.984;20.336;2022-11-02T01:13:56;179.30;6502.40
55331;DHT22;58851;42.984;20.336;2022-11-02T01:16:22;179.30;512.00
55331;DHT22;58851;42.984;20.336;2022-11-02T01:18:52;179.30;6502.40
55331;DHT22;58851;42.984;20.336;2022-11-02T01:21:18;179.20;6502.40
55331;DHT22;58851;42.984;20.336;2022-11-02T01:23:44;154.50;435.20
55331;DHT22;58851;42.984;20.336;2022-11-02T01:26:10;179.20;307.20
55331;DHT22;58851;42.984;20.336;2022-11-02T01:28:36;179.20;384.00
55331;DHT22;58851;42.984;20.336;2022-11-02T01:31:04;179.20;358.40
55331;DHT22;58851;42.984;20.336;2022-11-02T01:33:30;179.20;230.40
55331;DHT22;58851;42.984;20.336;2022-11-02T01:35:56;179.20;332.80
55331;DHT22;58851;42.984;20.336;2022-11-02T01:38:23;154.50;6502.40
55331;DHT22;58851;42.984;20.336;2022-11-02T01:40:49;154.40;6502.40
55331;DHT22;58851;42.984;20.336;2022-11-02T01:43:21;154.40;6502.40
55331;DHT22;58851;42.984;20.336;2022-11-02T01:45:50;154.40;512.00
55331;DHT22;58851;42.984;20.336;2022-11-02T01:48:27;154.40;6502.40
55331;DHT22;58851;42.984;20.336;2022-11-02T01:50:55;154.30;6502.40
55331;DHT22;58851;42.984;20.336;2022-11-02T01:53:22;154.40;435.20
55331;DHT22;58851;42.984;20.336;2022-11-02T01:55:49;154.30;435.20
55331;DHT22;58851;42.984;20.336;2022-11-02T01:58:15;154.30;384.00
55331;DHT22;58851;42.984;20.336;2022-11-02T02:00:41;154.30;6502.40
55331;DHT22;58851;42.984;20.336;2022-11-02T02:03:11;154.10;6502.40
55331;DHT22;58851;42.984;20.336;2022-11-02T02:05:42;154.20;6502.40
55331;DHT22;58851;42.984;20.336;2022-11-02T02:08:08;154.20;6502.40
55331;DHT22;58851;42.984;20.336;2022-11-02T02:10:35;154.20;6502.40
55331;DHT22;58851;42.984;20.336;2022-11-02T02:13:03;154.10;6502.40
55331;DHT22;58851;42.984;20.336;2022-11-02T02:15:45;154.10;6502.40
55331;DHT22;58851;42.984;20.336;2022-11-02T02:18:28;154.10;6502.40
55331;DHT22;58851;42.984;20.336;2022-11-02T02:21:16;154.10;6502.40
55331;DHT22;58851;42.984;20.336;2022-11-02T02:29:10;154.00;6502.40
55331;DHT22;58851;42.984;20.336;2022-11-02T02:32:03;154.00;6502.40
55331;DHT22;58851;42.984;20.336;2022-11-02T02:34:52;154.00;6502.40
55331;DHT22;58851;42.984;20.336;2022-11-02T02:37:40;154.00;6502.40
55331;DHT22;58851;42.984;20.336;2022-11-02T02:40:13;153.90;435.20
55331;DHT22;58851;42.984;20.336;2022-11-02T02:45:24;153.80;6502.40
55331;DHT22;58851;42.984;20.336;2022-11-02T02:48:11;153.80;6502.40
55331;DHT22;58851;42.984;20.336;2022-11-02T02:50:50;153.80;6502.40
55331;DHT22;58851;42.984;20.336;2022-11-02T02:53:20;153.70;6502.40
55331;DHT22;58851;42.984;20.336;2022-11-02T02:55:48;153.70;6502.40
55331;DHT22;58851;42.984;20.336;2022-11-02T02:58:18;153.70;6502.40
55331;DHT22;58851;42.984;20.336;2022-11-02T03:00:45;153.70;6502.40
55331;DHT22;58851;42.984;20.336;2022-11-02T03:03:26;153.70;6502.40
55331;DHT22;58851;42.984;20.336;2022-11-02T03:06:17;153.60;6502.40
55331;DHT22;58851;42.984;20.336;2022-11-02T03:08:50;153.60;6502.40
55331;DHT22;58851;42.984;20.336;2022-11-02T03:11:19;153.60;6502.40
55331;DHT22;58851;42.984;20.336;2022-11-02T03:19:52;128.90;6502.40
55331;DHT22;58851;42.984;20.336;2022-11-02T03:22:29;128.80;6502.40
55331;DHT22;58851;42.984;20.336;2022-11-02T03:25:28;128.80;6502.40
55331;DHT22;58851;42.984;20.336;2022-11-02T03:30:43;128.80;6502.40
55331;DHT22;58851;42.984;20.336;2022-11-02T03:33:19;128.70;6502.40
55331;DHT22;58851;42.984;20.336;2022-11-02T03:38:29;128.70;6502.40
55331;DHT22;58851;42.984;20.336;2022-11-02T03:40:57;128.70;6502.40
55331;DHT22;58851;42.984;20.336;2022-11-02T03:43:27;128.60;6502.40
55331;DHT22;58851;42.984;20.336;2022-11-02T03:45:55;128.70;6502.40
55331;DHT22;58851;42.984;20.336;2022-11-02T03:48:25;128.70;6502.40
55331;DHT22;58851;42.984;20.336;2022-11-02T03:50:52;128.60;6502.40
55331;DHT22;58851;42.984;20.336;2022-11-02T03:56:06;128.50;6502.40
55331;DHT22;58851;42.984;20.336;2022-11-02T03:58:34;128.50;6502.40
55331;DHT22;58851;42.984;20.336;2022-11-02T04:01:02;128.50;6502.40
55331;DHT22;58851;42.984;20.336;2022-11-02T04:03:29;128.50;6502.40
55331;DHT22;58851;42.984;20.336;2022-11-02T04:05:56;128.50;6502.40
55331;DHT22;58851;42.984;20.336;2022-11-02T04:08:33;128.40;6502.40
55331;DHT22;58851;42.984;20.336;2022-11-02T04:11:00;128.40;6502.40
55331;DHT22;58851;42.984;20.336;2022-11-02T04:13:44;128.40;6502.40
55331;DHT22;58851;42.984;20.336;2022-11-02T04:16:28;128.40;6502.40
55331;DHT22;58851;42.984;20.336;2022-11-02T04:18:54;128.40;6502.40
55331;DHT22;58851;42.984;20.336;2022-11-02T04:21:39;128.20;6502.40
55331;DHT22;58851;42.984;20.336;2022-11-02T04:24:05;128.10;6502.40
55331;DHT22;58851;42.984;20.336;2022-11-02T04:26:49;128.20;6502.40
55331;DHT22;58851;42.984;20.336;2022-11-02T04:29:15;128.20;6502.40
55331;DHT22;58851;42.984;20.336;2022-11-02T04:31:40;128.20;6502.40
55331;DHT22;58851;42.984;20.336;2022-11-02T04:34:06;128.20;6502.40
55331;DHT22;58851;42.984;20.336;2022-11-02T04:36:32;128.10;6502.40
55331;DHT22;58851;42.984;20.336;2022-11-02T04:38:58;128.10;6502.40
55331;DHT22;58851;42.984;20.336;2022-11-02T04:41:24;128.00;6502.40
55331;DHT22;58851;42.984;20.336;2022-11-02T04:44:12;128.00;6502.40
55331;DHT22;58851;42.984;20.336;2022-11-02T04:46:43;128.00;6502.40
55331;DHT22;58851;42.984;20.336;2022-11-02T04:49:10;128.00;6502.40
55331;DHT22;58851;42.984;20.336;2022-11-02T04:51:36;128.00;6502.40
55331;DHT22;58851;42.984;20.336;2022-11-02T04:54:04;128.00;6502.40
55331;DHT22;58851;42.984;20.336;2022-11-02T04:56:30;128.00;6502.40
55331;DHT22;58851;42.984;20.336;2022-11-02T04:58:58;128.00;6502.40
55331;DHT22;58851;42.984;20.336;2022-11-02T05:01:26;128.00;6502.40
55331;DHT22;58851;42.984;20.336;2022-11-02T05:03:53;128.00;6502.40
55331;DHT22;58851;42.984;20.336;2022-11-02T05:06:21;128.00;6502.40
55331;DHT22;58851;42.984;20.336;2022-11-02T05:08:47;128.00;6502.40
55331;DHT22;58851;42.984;20.336;2022-11-02T05:11:13;128.00;6502.40
55331;DHT22;58851;42.984;20.336;2022-11-02T05:13:40;128.00;6502.40
55331;DHT22;58851;42.984;20.336;2022-11-02T05:16:08;128.00;6502.40
55331;DHT22;58851;42.984;20.336;2022-11-02T05:18:35;128.00;6502.40
55331;DHT22;58851;42.984;20.336;2022-11-02T05:21:01;128.00;6502.40
55331;DHT22;58851;42.984;20.336;2022-11-02T05:23:27;128.00;6502.40
55331;DHT22;58851;42.984;20.336;2022-11-02T05:25:58;128.00;6502.40
55331;DHT22;58851;42.984;20.336;2022-11-02T05:28:24;128.00;6502.40
55331;DHT22;58851;42.984;20.336;2022-11-02T05:30:51;128.00;6502.40
55331;DHT22;58851;42.984;20.336;2022-11-02T05:33:17;128.00;6502.40
55331;DHT22;58851;42.984;20.336;2022-11-02T05:35:43;128.00;6502.40
55331;DHT22;58851;42.984;20.336;2022-11-02T05:38:09;103.30;6476.80
55331;DHT22;58851;42.984;20.336;2022-11-02T05:40:35;128.00;6502.40
55331;DHT22;58851;42.984;20.336;2022-11-02T05:43:06;128.00;6502.40
55331;DHT22;58851;42.984;20.336;2022-11-02T05:45:32;128.00;6502.40
55331;DHT22;58851;42.984;20.336;2022-11-02T05:48:02;128.10;6502.40
55331;DHT22;58851;42.984;20.336;2022-11-02T05:50:31;128.00;6502.40
55331;DHT22;58851;42.984;20.336;2022-11-02T05:52:56;128.00;6502.40
55331;DHT22;58851;42.984;20.336;2022-11-02T05:55:22;128.00;6502.40
55331;DHT22;58851;42.984;20.336;2022-11-02T05:57:52;128.10;6502.40
55331;DHT22;58851;42.984;20.336;2022-11-02T06:00:19;128.10;6502.40
55331;DHT22;58851;42.984;20.336;2022-11-02T06:02:46;128.20;6502.40
55331;DHT22;58851;42.984;20.336;2022-11-02T06:05:13;128.30;6502.40
55331;DHT22;58851;42.984;20.336;2022-11-02T06:07:39;128.50;6502.40
55331;DHT22;58851;42.984;20.336;2022-11-02T06:10:05;128.50;6502.40
55331;DHT22;58851;42.984;20.336;2022-11-02T06:12:31;128.50;6502.40
55331;DHT22;58851;42.984;20.336;2022-11-02T06:14:57;128.60;6502.40
55331;DHT22;58851;42.984;20.336;2022-11-02T06:17:23;128.60;6502.40
55331;DHT22;58851;42.984;20.336;2022-11-02T06:19:48;128.70;6502.40
55331;DHT22;58851;42.984;20.336;2022-11-02T06:22:14;128.80;6502.40
55331;DHT22;58851;42.984;20.336;2022-11-02T06:24:40;128.90;6502.40
55331;DHT22;58851;42.984;20.336;2022-11-02T06:27:05;153.60;6502.40
55331;DHT22;58851;42.984;20.336;2022-11-02T06:29:31;153.60;6502.40
55331;DHT22;58851;42.984;20.336;2022-11-02T06:31:57;153.80;384.00
55331;DHT22;58851;42.984;20.336;2022-11-02T06:34:23;153.90;204.80
55331;DHT22;58851;42.984;20.336;2022-11-02T06:36:48;153.90;230.40
55331;DHT22;58851;42.984;20.336;2022-11-02T06:39:14;154.00;179.20
55331;DHT22;58851;42.984;20.336;2022-11-02T06:41:40;154.00;358.40
55331;DHT22;58851;42.984;20.336;2022-11-02T06:44:05;154.20;307.20
55331;DHT22;58851;42.984;20.336;2022-11-02T06:46:31;154.30;409.60
55331;DHT22;58851;42.984;20.336;2022-11-02T06:48:57;154.40;332.80
55331;DHT22;58851;42.984;20.336;2022-11-02T06:51:23;154.40;307.20
55331;DHT22;58851;42.984;20.336;2022-11-02T06:53:49;154.50;128.00
55331;DHT22;58851;42.984;20.336;2022-11-02T06:56:14;179.30;6502.40
55331;DHT22;58851;42.984;20.336;2022-11-02T06:58:40;179.30;6502.40
55331;DHT22;58851;42.984;20.336;2022-11-02T07:01:07;179.50;6502.40
55331;DHT22;58851;42.984;20.336;2022-11-02T07:03:33;179.70;6502.40
55331;DHT22;58851;42.984;20.336;2022-11-02T07:05:59;179.80;6502.40
55331;DHT22;58851;42.984;20.336;2022-11-02T07:08:25;180.00;6502.40
55331;DHT22;58851;42.984;20.336;2022-11-02T07:10:52;180.10;6502.40
55331;DHT22;58851;42.984;20.336;2022-11-02T07:13:18;180.10;6502.40
55331;DHT22;58851;42.984;20.336;2022-11-02T07:15:44;204.80;6502.40
55331;DHT22;58851;42.984;20.336;2022-11-02T07:18:10;205.00;6502.40
55331;DHT22;58851;42.984;20.336;2022-11-02T07:20:37;205.10;6502.40
55331;DHT22;58851;42.984;20.336;2022-11-02T07:23:04;205.20;6502.40
55331;DHT22;58851;42.984;20.336;2022-11-02T07:25:31;205.30;6502.40
55331;DHT22;58851;42.984;20.336;2022-11-02T07:27:58;205.20;6502.40
55331;DHT22;58851;42.984;20.336;2022-11-02T07:30:32;205.30;6502.40
55331;DHT22;58851;42.984;20.336;2022-11-02T07:32:58;205.50;6502.40
55331;DHT22;58851;42.984;20.336;2022-11-02T07:35:24;205.60;6502.40
55331;DHT22;58851;42.984;20.336;2022-11-02T07:38:00;205.70;6502.40
55331;DHT22;58851;42.984;20.336;2022-11-02T07:40:28;230.50;6502.40
55331;DHT22;58851;42.984;20.336;2022-11-02T07:42:54;230.70;6502.40
55331;DHT22;58851;42.984;20.336;2022-11-02T07:45:21;230.90;6502.40
55331;DHT22;58851;42.984;20.336;2022-11-02T07:47:48;230.90;6502.40
55331;DHT22;58851;42.984;20.336;2022-11-02T07:50:18;231.10;6502.40
55331;DHT22;58851;42.984;20.336;2022-11-02T07:52:48;231.10;6502.40
55331;DHT22;58851;42.984;20.336;2022-11-02T07:55:16;231.30;6502.40
55331;DHT22;58851;42.984;20.336;2022-11-02T07:57:42;256.00;6502.40
55331;DHT22;58851;42.984;20.336;2022-11-02T08:00:10;256.10;6502.40
55331;DHT22;58851;42.984;20.336;2022-11-02T08:02:36;256.30;6502.40
55331;DHT22;58851;42.984;20.336;2022-11-02T08:05:03;256.60;6502.40
55331;DHT22;58851;42.984;20.336;2022-11-02T08:07:29;256.80;6502.40
55331;DHT22;58851;42.984;20.336;2022-11-02T08:09:55;281.60;6528.00
55331;DHT22;58851;42.984;20.336;2022-11-02T08:12:20;281.60;6528.00
55331;DHT22;58851;42.984;20.336;2022-11-02T08:14:46;281.80;6528.00
55331;DHT22;58851;42.984;20.336;2022-11-02T08:17:12;281.80;6528.00
55331;DHT22;58851;42.984;20.336;2022-11-02T08:19:38;282.10;6528.00
55331;DHT22;58851;42.984;20.336;2022-11-02T08:22:03;282.10;6528.00
55331;DHT22;58851;42.984;20.336;2022-11-02T08:24:29;282.30;6528.00
55331;DHT22;58851;42.984;20.336;2022-11-02T08:26:55;282.40;6528.00
55331;DHT22;58851;42.984;20.336;2022-11-02T08:29:21;307.20;128.00
55331;DHT22;58851;42.984;20.336;2022-11-02T08:31:46;307.30;128.00
55331;DHT22;58851;42.984;20.336;2022-11-02T08:34:12;307.50;128.00
55331;DHT22;58851;42.984;20.336;2022-11-02T08:36:38;307.70;128.00
55331;DHT22;58851;42.984;20.336;2022-11-02T08:39:04;307.90;128.00
55331;DHT22;58851;42.984;20.336;2022-11-02T08:41:30;308.00;128.00
55331;DHT22;58851;42.984;20.336;2022-11-02T08:43:55;308.10;128.00
55331;DHT22;58851;42.984;20.336;2022-11-02T08:46:22;332.90;128.00
55331;DHT22;58851;42.984;20.336;2022-11-02T08:48:47;333.00;128.00
55331;DHT22;58851;42.984;20.336;2022-11-02T08:51:13;333.10;128.00
55331;DHT22;58851;42.984;20.336;2022-11-02T08:53:39;333.30;128.00
55331;DHT22;58851;42.984;20.336;2022-11-02T08:56:05;333.40;128.00
55331;DHT22;58851;42.984;20.336;2022-11-02T08:58:31;333.50;128.00
55331;DHT22;58851;42.984;20.336;2022-11-02T09:00:57;333.70;128.00
55331;DHT22;58851;42.984;20.336;2022-11-02T09:03:23;358.40;128.00
55331;DHT22;58851;42.984;20.336;2022-11-02T09:05:59;358.60;128.00
55331;DHT22;58851;42.984;20.336;2022-11-02T09:08:25;358.70;128.00
55331;DHT22;58851;42.984;20.336;2022-11-02T09:10:52;358.80;128.00
55331;DHT22;58851;42.984;20.336;2022-11-02T09:13:19;358.90;128.00
55331;DHT22;58851;42.984;20.336;2022-11-02T09:15:51;359.00;128.00
55331;DHT22;58851;42.984;20.336;2022-11-02T09:18:18;359.20;128.00
55331;DHT22;58851;42.984;20.336;2022-11-02T09:20:44;384.00;128.00
55331;DHT22;58851;42.984;20.336;2022-11-02T09:23:12;384.10;128.00
55331;DHT22;58851;42.984;20.336;2022-11-02T09:25:37;384.20;128.00
55331;DHT22;58851;42.984;20.336;2022-11-02T09:28:03;384.20;128.00
55331;DHT22;58851;42.984;20.336;2022-11-02T09:30:29;384.30;128.00
55331;DHT22;58851;42.984;20.336;2022-11-02T09:32:58;384.20;128.00
55331;DHT22;58851;42.984;20.336;2022-11-02T09:35:26;384.30;128.00
55331;DHT22;58851;42.984;20.336;2022-11-02T09:37:53;384.50;128.00
55331;DHT22;58851;42.984;20.336;2022-11-02T09:40:24;384.50;128.00
55331;DHT22;58851;42.984;20.336;2022-11-02T09:43:38;384.80;128.00
55331;DHT22;58851;42.984;20.336;2022-11-02T09:46:00;409.70;128.00
55331;DHT22;58851;42.984;20.336;2022-11-02T09:51:22;410.00;128.00
55331;DHT22;58851;42.984;20.336;2022-11-02T09:56:18;410.30;128.00
55331;DHT22;58851;42.984;20.336;2022-11-02T09:58:55;410.50;128.00
55331;DHT22;58851;42.984;20.336;2022-11-02T10:09:56;435.80;128.00
55331;DHT22;58851;42.984;20.336;2022-11-02T10:15:40;436.10;128.00
55331;DHT22;58851;42.984;20.336;2022-11-02T10:18:18;436.10;128.00
55331;DHT22;58851;42.984;20.336;2022-11-02T10:20:50;461.00;128.00
55331;DHT22;58851;42.984;20.336;2022-11-02T10:23:27;461.20;128.00
55331;DHT22;58851;42.984;20.336;2022-11-02T10:25:55;461.40;128.00
55331;DHT22;58851;42.984;20.336;2022-11-02T10:28:26;461.40;128.00
55331;DHT22;58851;42.984;20.336;2022-11-02T10:30:52;461.40;128.00
55331;DHT22;58851;42.984;20.336;2022-11-02T10:33:25;461.70;128.00
55331;DHT22;58851;42.984;20.336;2022-11-02T10:49:14;487.10;128.00
55331;DHT22;58851;42.984;20.336;2022-11-02T10:51:44;512.00;128.00
55331;DHT22;58851;42.984;20.336;2022-11-02T10:54:14;512.20;128.00
55331;DHT22;58851;42.984;20.336;2022-11-02T10:56:41;512.50;128.00
55331;DHT22;58851;42.984;20.336;2022-11-02T10:59:14;512.70;128.00
55331;DHT22;58851;42.984;20.336;2022-11-02T11:02:04;512.90;128.00
55331;DHT22;58851;42.984;20.336;2022-11-02T11:04:34;537.70;128.00
55331;DHT22;58851;42.984;20.336;2022-11-02T11:07:05;537.90;128.00
55331;DHT22;58851;42.984;20.336;2022-11-02T11:09:38;538.10;128.00
55331;DHT22;58851;42.984;20.336;2022-11-02T11:12:16;538.30;128.00
55331;DHT22;58851;42.984;20.336;2022-11-02T11:14:56;538.40;128.00
55331;DHT22;58851;42.984;20.336;2022-11-02T11:17:36;563.20;128.00
55331;DHT22;58851;42.984;20.336;2022-11-02T15:43:09;461.40;128.00
55331;DHT22;58851;42.984;20.336;2022-11-02T15:46:02;461.60;128.00
55331;DHT22;58851;42.984;20.336;2022-11-02T15:57:27;461.10;128.00
55331;DHT22;58851;42.984;20.336;2022-11-02T16:00:18;461.00;128.00
55331;DHT22;58851;42.984;20.336;2022-11-02T16:02:51;460.80;128.00
55331;DHT22;58851;42.984;20.336;2022-11-02T16:07:46;436.10;128.00
55331;DHT22;58851;42.984;20.336;2022-11-02T16:10:30;435.90;128.00
55331;DHT22;58851;42.984;20.336;2022-11-02T16:13:00;435.80;128.00
55331;DHT22;58851;42.984;20.336;2022-11-02T16:15:26;435.70;128.00
55331;DHT22;58851;42.984;20.336;2022-11-02T16:17:52;435.60;128.00
55331;DHT22;58851;42.984;20.336;2022-11-02T16:23:06;435.40;128.00
55331;DHT22;58851;42.984;20.336;2022-11-02T16:25:44;435.50;128.00
55331;DHT22;58851;42.984;20.336;2022-11-02T16:28:25;435.50;128.00
55331;DHT22;58851;42.984;20.336;2022-11-02T16:31:27;435.50;128.00
55331;DHT22;58851;42.984;20.336;2022-11-02T16:33:57;435.50;128.00
55331;DHT22;58851;42.984;20.336;2022-11-02T16:36:24;435.50;128.00
55331;DHT22;58851;42.984;20.336;2022-11-02T16:38:59;435.50;128.00
55331;DHT22;58851;42.984;20.336;2022-11-02T16:41:30;435.40;128.00
55331;DHT22;58851;42.984;20.336;2022-11-02T16:44:06;435.30;128.00
55331;DHT22;58851;42.984;20.336;2022-11-02T16:49:19;435.30;128.00
55331;DHT22;58851;42.984;20.336;2022-11-02T16:52:00;435.40;128.00
55331;DHT22;58851;42.984;20.336;2022-11-02T16:57:20;435.20;128.00
55331;DHT22;58851;42.984;20.336;2022-11-02T16:59:52;410.50;128.00
55331;DHT22;58851;42.984;20.336;2022-11-02T17:02:36;435.20;128.00
55331;DHT22;58851;42.984;20.336;2022-11-02T17:05:04;435.20;128.00
55331;DHT22;58851;42.984;20.336;2022-11-02T17:07:34;410.50;128.00
55331;DHT22;58851;42.984;20.336;2022-11-02T17:10:02;410.40;128.00
55331;DHT22;58851;42.984;20.336;2022-11-02T17:12:36;410.30;128.00
55331;DHT22;58851;42.984;20.336;2022-11-02T17:15:12;410.30;128.00
55331;DHT22;58851;42.984;20.336;2022-11-02T17:17:39;410.30;128.00
55331;DHT22;58851;42.984;20.336;2022-11-02T17:23:00;410.30;128.00
55331;DHT22;58851;42.984;20.336;2022-11-02T17:25:31;410.30;128.00
55331;DHT22;58851;42.984;20.336;2022-11-02T17:28:02;410.00;128.00
55331;DHT22;58851;42.984;20.336;2022-11-02T17:35:45;410.00;128.00
55331;DHT22;58851;42.984;20.336;2022-11-02T17:38:11;409.90;128.00
55331;DHT22;58851;42.984;20.336;2022-11-02T17:40:37;409.90;128.00
55331;DHT22;58851;42.984;20.336;2022-11-02T17:43:03;409.80;128.00
55331;DHT22;58851;42.984;20.336;2022-11-02T17:45:38;409.60;128.00
55331;DHT22;58851;42.984;20.336;2022-11-02T17:48:05;384.90;128.00
55331;DHT22;58851;42.984;20.336;2022-11-02T17:50:33;384.90;128.00
55331;DHT22;58851;42.984;20.336;2022-11-02T17:53:01;384.90;128.00
55331;DHT22;58851;42.984;20.336;2022-11-02T17:55:33;409.60;128.00
55331;DHT22;58851;42.984;20.336;2022-11-02T17:57:59;409.60;128.00
55331;DHT22;58851;42.984;20.336;2022-11-02T18:00:26;384.80;128.00
55331;DHT22;58851;42.984;20.336;2022-11-02T18:02:57;384.70;128.00
55331;DHT22;58851;42.984;20.336;2022-11-02T18:05:28;384.60;128.00
55331;DHT22;58851;42.984;20.336;2022-11-02T18:07:56;384.50;128.00
55331;DHT22;58851;42.984;20.336;2022-11-02T18:10:25;384.50;128.00
55331;DHT22;58851;42.984;20.336;2022-11-02T18:12:51;384.40;128.00
55331;DHT22;58851;42.984;20.336;2022-11-02T18:15:19;384.40;128.00
55331;DHT22;58851;42.984;20.336;2022-11-02T18:17:45;384.30;128.00
55331;DHT22;58851;42.984;20.336;2022-11-02T18:20:12;384.20;128.00
55331;DHT22;58851;42.984;20.336;2022-11-02T18:22:38;384.20;128.00
55331;DHT22;58851;42.984;20.336;2022-11-02T18:25:05;384.10;128.00
55331;DHT22;58851;42.984;20.336;2022-11-02T18:27:31;384.00;128.00
55331;DHT22;58851;42.984;20.336;2022-11-02T18:29:57;359.30;128.00
55331;DHT22;58851;42.984;20.336;2022-11-02T18:32:23;359.30;128.00
55331;DHT22;58851;42.984;20.336;2022-11-02T18:34:49;359.20;128.00
55331;DHT22;58851;42.984;20.336;2022-11-02T18:37:14;359.10;128.00
55331;DHT22;58851;42.984;20.336;2022-11-02T18:39:40;359.00;128.00
55331;DHT22;58851;42.984;20.336;2022-11-02T18:42:06;358.80;128.00
55331;DHT22;58851;42.984;20.336;2022-11-02T18:44:32;358.90;128.00
55331;DHT22;58851;42.984;20.336;2022-11-02T18:46:57;358.90;128.00
55331;DHT22;58851;42.984;20.336;2022-11-02T18:49:24;358.70;128.00
55331;DHT22;58851;42.984;20.336;2022-11-02T18:51:50;358.60;128.00
55331;DHT22;58851;42.984;20.336;2022-11-02T18:54:16;358.50;128.00
55331;DHT22;58851;42.984;20.336;2022-11-02T18:56:43;358.50;128.00
55331;DHT22;58851;42.984;20.336;2022-11-02T18:59:09;358.50;128.00
55331;DHT22;58851;42.984;20.336;2022-11-02T19:01:34;358.40;128.00
55331;DHT22;58851;42.984;20.336;2022-11-02T19:04:01;358.40;128.00
55331;DHT22;58851;42.984;20.336;2022-11-02T19:06:29;333.60;128.00
55331;DHT22;58851;42.984;20.336;2022-11-02T19:09:14;333.60;128.00
55331;DHT22;58851;42.984;20.336;2022-11-02T19:11:53;333.60;128.00
55331;DHT22;58851;42.984;20.336;2022-11-02T19:14:30;333.50;128.00
55331;DHT22;58851;42.984;20.336;2022-11-02T19:16:56;333.40;128.00
55331;DHT22;58851;42.984;20.336;2022-11-02T19:19:22;333.10;128.00
55331;DHT22;58851;42.984;20.336;2022-11-02T19:21:48;333.20;128.00
55331;DHT22;58851;42.984;20.336;2022-11-02T19:24:14;333.20;128.00
55331;DHT22;58851;42.984;20.336;2022-11-02T19:26:39;333.30;128.00
55331;DHT22;58851;42.984;20.336;2022-11-02T19:29:06;333.20;128.00
55331;DHT22;58851;42.984;20.336;2022-11-02T19:31:33;333.10;128.00
55331;DHT22;58851;42.984;20.336;2022-11-02T19:33:59;333.10;128.00
55331;DHT22;58851;42.984;20.336;2022-11-02T19:36:26;333.10;128.00
55331;DHT22;58851;42.984;20.336;2022-11-02T19:38:52;333.10;128.00
55331;DHT22;58851;42.984;20.336;2022-11-02T19:41:17;333.00;128.00
55331;DHT22;58851;42.984;20.336;2022-11-02T19:43:44;333.10;128.00
55331;DHT22;58851;42.984;20.336;2022-11-02T19:46:15;333.00;128.00
55331;DHT22;58851;42.984;20.336;2022-11-02T19:48:42;333.10;128.00
55331;DHT22;58851;42.984;20.336;2022-11-02T19:51:20;333.10;128.00
55331;DHT22;58851;42.984;20.336;2022-11-02T19:53:51;333.00;128.00
55331;DHT22;58851;42.984;20.336;2022-11-02T19:56:19;332.90;128.00
55331;DHT22;58851;42.984;20.336;2022-11-02T19:58:46;332.90;128.00
55331;DHT22;58851;42.984;20.336;2022-11-02T20:01:15;332.90;128.00
55331;DHT22;58851;42.984;20.336;2022-11-02T20:03:42;332.90;128.00
55331;DHT22;58851;42.984;20.336;2022-11-02T20:06:12;332.80;128.00
55331;DHT22;58851;42.984;20.336;2022-11-02T20:08:38;332.80;128.00
55331;DHT22;58851;42.984;20.336;2022-11-02T20:11:09;332.80;128.00
55331;DHT22;58851;42.984;20.336;2022-11-02T20:13:36;308.10;128.00
55331;DHT22;58851;42.984;20.336;2022-11-02T20:16:03;307.90;128.00
55331;DHT22;58851;42.984;20.336;2022-11-02T20:18:29;307.90;128.00
55331;DHT22;58851;42.984;20.336;2022-11-02T20:21:16;307.90;128.00
55331;DHT22;58851;42.984;20.336;2022-11-02T20:23:43;307.90;128.00
55331;DHT22;58851;42.984;20.336;2022-11-02T20:26:15;307.90;128.00
55331;DHT22;58851;42.984;20.336;2022-11-02T20:28:42;307.90;128.00
55331;DHT22;58851;42.984;20.336;2022-11-02T20:31:11;307.90;128.00
55331;DHT22;58851;42.984;20.336;2022-11-02T20:33:38;307.90;128.00
55331;DHT22;58851;42.984;20.336;2022-11-02T20:36:05;307.80;128.00
55331;DHT22;58851;42.984;20.336;2022-11-02T20:38:31;307.80;128.00